地図

経路データ

SID SEASON NUMBER BASIN SUBBASIN NAME ISO_TIME NATURE LAT LON WMO_WIND WMO_PRES WMO_AGENCY TRACK_TYPE DIST2LAND LANDFALL IFLAG USA_AGENCY USA_ATCF_ID USA_LAT USA_LON USA_RECORD USA_STATUS USA_WIND USA_PRES USA_SSHS USA_R34_NE USA_R34_SE USA_R34_SW USA_R34_NW USA_R50_NE USA_R50_SE USA_R50_SW USA_R50_NW USA_R64_NE USA_R64_SE USA_R64_SW USA_R64_NW USA_POCI USA_ROCI USA_RMW USA_EYE TOKYO_LAT TOKYO_LON TOKYO_GRADE TOKYO_WIND TOKYO_PRES TOKYO_R50_DIR TOKYO_R50_LONG TOKYO_R50_SHORT TOKYO_R30_DIR TOKYO_R30_LONG TOKYO_R30_SHORT TOKYO_LAND CMA_LAT CMA_LON CMA_CAT CMA_WIND CMA_PRES HKO_LAT HKO_LON HKO_CAT HKO_WIND HKO_PRES NEWDELHI_LAT NEWDELHI_LON NEWDELHI_GRADE NEWDELHI_WIND NEWDELHI_PRES NEWDELHI_CI NEWDELHI_DP NEWDELHI_POCI REUNION_LAT REUNION_LON REUNION_TYPE REUNION_WIND REUNION_PRES REUNION_TNUM REUNION_CI REUNION_RMW REUNION_R34_NE REUNION_R34_SE REUNION_R34_SW REUNION_R34_NW REUNION_R50_NE REUNION_R50_SE REUNION_R50_SW REUNION_R50_NW REUNION_R64_NE REUNION_R64_SE REUNION_R64_SW REUNION_R64_NW BOM_LAT BOM_LON BOM_TYPE BOM_WIND BOM_PRES BOM_TNUM BOM_CI BOM_RMW BOM_R34_NE BOM_R34_SE BOM_R34_SW BOM_R34_NW BOM_R50_NE BOM_R50_SE BOM_R50_SW BOM_R50_NW BOM_R64_NE BOM_R64_SE BOM_R64_SW BOM_R64_NW BOM_ROCI BOM_POCI BOM_EYE BOM_POS_METHOD BOM_PRES_METHOD NADI_LAT NADI_LON NADI_CAT NADI_WIND NADI_PRES WELLINGTON_LAT WELLINGTON_LON WELLINGTON_WIND WELLINGTON_PRES DS824_LAT DS824_LON DS824_STAGE DS824_WIND DS824_PRES TD9636_LAT TD9636_LON TD9636_STAGE TD9636_WIND TD9636_PRES TD9635_LAT TD9635_LON TD9635_WIND TD9635_PRES TD9635_ROCI NEUMANN_LAT NEUMANN_LON NEUMANN_CLASS NEUMANN_WIND NEUMANN_PRES MLC_LAT MLC_LON MLC_CLASS MLC_WIND MLC_PRES USA_GUST BOM_GUST BOM_GUST_PER REUNION_GUST REUNION_GUST_PER USA_SEAHGT USA_SEARAD_NE USA_SEARAD_SE USA_SEARAD_SW USA_SEARAD_NW STORM_SPEED STORM_DIR
1911221N26278 1911 49 NA GM NOT_NAMED 1911-08-08 12:00:00 TS 25.5000 -82.5000 30 hurdat_atl main 91 91 O_____________ hurdat_atl AL021911 25.5000 -82.5000 TD 30 -1 1 270
1911221N26278 1911 49 NA GM NOT_NAMED 1911-08-08 15:00:00 TS 25.5000 -82.5500 main 91 100 P_____________ AL021911 25.5000 -82.5500 TD 30 -1 1 270
1911221N26278 1911 49 NA GM NOT_NAMED 1911-08-08 18:00:00 TS 25.5000 -82.6000 30 hurdat_atl main 100 100 O_____________ hurdat_atl AL021911 25.5000 -82.6000 TD 30 -1 1 270
1911221N26278 1911 49 NA GM NOT_NAMED 1911-08-08 21:00:00 TS 25.5000 -82.6500 main 100 100 P_____________ AL021911 25.5000 -82.6500 TD 30 -1 1 270
1911221N26278 1911 49 NA GM NOT_NAMED 1911-08-09 00:00:00 TS 25.5000 -82.7000 30 hurdat_atl main 109 109 O_____________ hurdat_atl AL021911 25.5000 -82.7000 TD 30 -1 1 259
1911221N26278 1911 49 NA GM NOT_NAMED 1911-08-09 03:00:00 TS 25.4850 -82.7425 main 109 109 P_____________ AL021911 25.4850 -82.7425 TD 32 -1 1 270
1911221N26278 1911 49 NA GM NOT_NAMED 1911-08-09 06:00:00 TS 25.5000 -82.8000 35 hurdat_atl main 118 118 O_____________ hurdat_atl AL021911 25.5000 -82.8000 TS 35 0 2 306
1911221N26278 1911 49 NA GM NOT_NAMED 1911-08-09 09:00:00 TS 25.5775 -82.8850 main 123 123 P_____________ AL021911 25.5775 -82.8850 TS 35 0 3 318
1911221N26278 1911 49 NA GM NOT_NAMED 1911-08-09 12:00:00 TS 25.7000 -83.0000 35 hurdat_atl main 127 127 O_____________ hurdat_atl AL021911 25.7000 -83.0000 TS 35 0 3 317
1911221N26278 1911 49 NA GM NOT_NAMED 1911-08-09 15:00:00 TS 25.8275 -83.1425 main 133 133 P_____________ AL021911 25.8275 -83.1425 TS 35 0 4 318
1911221N26278 1911 49 NA GM NOT_NAMED 1911-08-09 18:00:00 TS 26.0000 -83.3000 35 hurdat_atl main 133 126 O_____________ hurdat_atl AL021911 26.0000 -83.3000 TS 35 0 5 325
1911221N26278 1911 49 NA GM NOT_NAMED 1911-08-09 21:00:00 TS 26.2275 -83.4500 main 136 127 P_____________ AL021911 26.2275 -83.4500 TS 37 0 6 332
1911221N26278 1911 49 NA GM NOT_NAMED 1911-08-10 00:00:00 TS 26.5000 -83.6000 40 hurdat_atl main 133 122 O_____________ hurdat_atl AL021911 26.5000 -83.6000 TS 40 0 6 335
1911221N26278 1911 49 NA GM NOT_NAMED 1911-08-10 03:00:00 TS 26.8000 -83.7426 main 122 122 P_____________ AL021911 26.8000 -83.7426 TS 42 0 7 336
1911221N26278 1911 49 NA GM NOT_NAMED 1911-08-10 06:00:00 TS 27.1000 -83.9000 45 hurdat_atl main 130 125 O_____________ hurdat_atl AL021911 27.1000 -83.9000 TS 45 0 6 331
1911221N26278 1911 49 NA GM NOT_NAMED 1911-08-10 09:00:00 TS 27.3575 -84.0851 main 130 130 P_____________ AL021911 27.3575 -84.0851 TS 47 0 6 324
1911221N26278 1911 49 NA GM NOT_NAMED 1911-08-10 12:00:00 TS 27.6000 -84.3000 50 hurdat_atl main 141 139 O_____________ hurdat_atl AL021911 27.6000 -84.3000 TS 50 0 6 321
1911221N26278 1911 49 NA GM NOT_NAMED 1911-08-10 15:00:00 TS 27.8500 -84.5351 main 157 157 P_____________ AL021911 27.8500 -84.5351 TS 52 0 7 318
1911221N26278 1911 49 NA GM NOT_NAMED 1911-08-10 18:00:00 TS 28.1000 -84.8000 55 hurdat_atl main 178 156 O_____________ hurdat_atl AL021911 28.1000 -84.8000 TS 55 0 7 315
1911221N26278 1911 49 NA GM NOT_NAMED 1911-08-10 21:00:00 TS 28.3575 -85.1000 main 145 122 P_____________ AL021911 28.3575 -85.1000 TS 57 0 7 313
1911221N26278 1911 49 NA GM NOT_NAMED 1911-08-11 00:00:00 TS 28.6000 -85.4000 60 hurdat_atl main 122 102 O_____________ hurdat_atl AL021911 28.6000 -85.4000 TS 60 0 7 312
1911221N26278 1911 49 NA GM NOT_NAMED 1911-08-11 03:00:00 TS 28.7999 -85.6503 main 104 87 P_____________ AL021911 28.7999 -85.6503 TS 62 0 6 312
1911221N26278 1911 49 NA GM NOT_NAMED 1911-08-11 06:00:00 TS 29.0000 -85.9000 65 hurdat_atl main 91 87 O_____________ hurdat_atl AL021911 29.0000 -85.9000 HU 65 1 6 313
1911221N26278 1911 49 NA GM NOT_NAMED 1911-08-11 09:00:00 TS 29.2425 -86.1925 main 95 89 P_____________ AL021911 29.2425 -86.1925 HU 67 1 7 314
1911221N26278 1911 49 NA GM NOT_NAMED 1911-08-11 12:00:00 TS 29.5000 -86.5000 70 hurdat_atl main 97 77 O_____________ hurdat_atl AL021911 29.5000 -86.5000 HU 70 1 7 314
1911221N26278 1911 49 NA GM NOT_NAMED 1911-08-11 15:00:00 TS 29.7545 -86.8001 main 66 34 P_____________ AL021911 29.7545 -86.8001 HU 70 1 7 314
1911221N26278 1911 49 NA GM NOT_NAMED 1911-08-11 18:00:00 TS 30.0000 -87.1000 70 hurdat_atl main 34 11 O_____________ hurdat_atl AL021911 30.0000 -87.1000 HU 70 1 7 313
1911221N26278 1911 49 NA GM NOT_NAMED 1911-08-11 21:00:00 TS 30.2359 -87.4000 main 11 0 P_____________ AL021911 30.2359 -87.4000 HU 70 1 7 311
1911221N26278 1911 49 NA GM NOT_NAMED 1911-08-11 22:00:00 TS 30.3000 -87.5000 70 hurdat_atl main 0 0 O_____________ hurdat_atl AL021911 30.3000 -87.5000 L HU 70 1 6 302
1911221N26278 1911 49 NA NA NOT_NAMED 1911-08-12 00:00:00 TS 30.4000 -87.7000 65 hurdat_atl main 0 0 O_____________ hurdat_atl AL021911 30.4000 -87.7000 HU 65 1 6 296
1911221N26278 1911 49 NA GM NOT_NAMED 1911-08-12 03:00:00 TS 30.5115 -87.9937 main 9 0 P_____________ AL021911 30.5115 -87.9937 HU 60 0 6 291
1911221N26278 1911 49 NA NA NOT_NAMED 1911-08-12 06:00:00 TS 30.6000 -88.3000 55 hurdat_atl main 0 0 O_____________ hurdat_atl AL021911 30.6000 -88.3000 TS 55 0 6 289
1911221N26278 1911 49 NA NA NOT_NAMED 1911-08-12 09:00:00 TS 30.7074 -88.6350 main 0 0 P_____________ AL021911 30.7074 -88.6350 TS 50 0 6 288
1911221N26278 1911 49 NA NA NOT_NAMED 1911-08-12 12:00:00 TS 30.8000 -89.0000 45 hurdat_atl main 0 0 O_____________ hurdat_atl AL021911 30.8000 -89.0000 TS 45 0 7 283
1911221N26278 1911 49 NA NA NOT_NAMED 1911-08-12 15:00:00 TS 30.8574 -89.3851 main 0 0 P_____________ AL021911 30.8574 -89.3851 TS 42 0 7 278
1911221N26278 1911 49 NA NA NOT_NAMED 1911-08-12 18:00:00 TS 30.9000 -89.8000 40 hurdat_atl main 0 0 O_____________ hurdat_atl AL021911 30.9000 -89.8000 TS 40 0 7 278
1911221N26278 1911 49 NA NA NOT_NAMED 1911-08-12 21:00:00 TS 30.9574 -90.2424 main 0 0 P_____________ AL021911 30.9574 -90.2424 TS 37 0 8 277
1911221N26278 1911 49 NA NA NOT_NAMED 1911-08-13 00:00:00 TS 31.0000 -90.7000 35 hurdat_atl main 0 0 O_____________ hurdat_atl AL021911 31.0000 -90.7000 TS 35 0 8 274
1911221N26278 1911 49 NA NA NOT_NAMED 1911-08-13 03:00:00 TS 31.0073 -91.1501 main 0 0 P_____________ AL021911 31.0073 -91.1501 TS 32 -1 8 270
1911221N26278 1911 49 NA NA NOT_NAMED 1911-08-13 06:00:00 TS 31.0000 -91.6000 30 hurdat_atl main 0 0 O_____________ hurdat_atl AL021911 31.0000 -91.6000 TD 30 -1 8 267
1911221N26278 1911 49 NA NA NOT_NAMED 1911-08-13 09:00:00 TS 30.9701 -92.0803 main 0 0 P_____________ AL021911 30.9701 -92.0803 TD 30 -1 8 270
1911221N26278 1911 49 NA NA NOT_NAMED 1911-08-13 12:00:00 TS 31.0000 -92.5000 30 hurdat_atl main 0 0 O_____________ hurdat_atl AL021911 31.0000 -92.5000 TD 30 -1 6 285
1911221N26278 1911 49 NA NA NOT_NAMED 1911-08-13 15:00:00 TS 31.1398 -92.7950 main 0 0 P_____________ AL021911 31.1398 -92.7950 TD 30 -1 6 313
1911221N26278 1911 49 NA NA NOT_NAMED 1911-08-13 18:00:00 TS 31.4000 -93.0000 30 hurdat_atl main 0 0 O_____________ hurdat_atl AL021911 31.4000 -93.0000 TD 30 -1 7 331
1911221N26278 1911 49 NA NA NOT_NAMED 1911-08-13 21:00:00 TS 31.7400 -93.1800 main 0 0 P_____________ AL021911 31.7400 -93.1800 TD 27 -1 8 342
1911221N26278 1911 49 NA NA NOT_NAMED 1911-08-14 00:00:00 TS 32.2000 -93.3000 25 hurdat_atl main 0 0 O_____________ hurdat_atl AL021911 32.2000 -93.3000 TD 25 -1 10 351
1911221N26278 1911 49 NA NA NOT_NAMED 1911-08-14 03:00:00 TS 32.7400 -93.3653 main 0 0 P_____________ AL021911 32.7400 -93.3653 TD 22 -1 12 356
1911221N26278 1911 49 NA NA NOT_NAMED 1911-08-14 06:00:00 TS 33.4000 -93.4000 20 hurdat_atl main 0 0 O_____________ hurdat_atl AL021911 33.4000 -93.4000 TD 20 -1 14 357
1911221N26278 1911 49 NA NA NOT_NAMED 1911-08-14 09:00:00 TS 34.1700 -93.4446 main 0 0 P_____________ AL021911 34.1700 -93.4446 TD 20 -1 16 357
1911221N26278 1911 49 NA NA NOT_NAMED 1911-08-14 12:00:00 TS 35.0000 -93.5000 20 hurdat_atl main 0 O_____________ hurdat_atl AL021911 35.0000 -93.5000 TD 20 -1 17 357

IBTrACS Databaseについて

本データベースは、米国NOAAが公開する1842年以降の世界の熱帯低気圧のベストトラックデータアーカイブInternational Best Track Archive for Climate Stewardship (IBTrACS)を、ウェブで閲覧しやすい形式に変換したものです。

最終更新日:2021-11-26